sensor_id;sensor_type;location;lat;lon;timestamp;pressure;altitude;pressure_sealevel;temperature;humidity
62779;BME280;48821;48.796;2.396;2023-02-19T00:00:02;102478.19;;;13.52;59.41
62779;BME280;48821;48.796;2.396;2023-02-19T00:01:18;102487.00;;;13.53;59.55
62779;BME280;48821;48.796;2.396;2023-02-19T00:02:31;102484.38;;;13.53;59.59
62779;BME280;48821;48.796;2.396;2023-02-19T00:03:47;102490.50;;;13.53;59.72
62779;BME280;48821;48.796;2.396;2023-02-19T00:05:01;102487.00;;;13.53;59.78
62779;BME280;48821;48.796;2.396;2023-02-19T00:06:14;102495.78;;;13.53;59.88
62779;BME280;48821;48.796;2.396;2023-02-19T00:07:27;102474.66;;;13.53;60.20
62779;BME280;48821;48.796;2.396;2023-02-19T00:08:38;102473.81;;;13.51;60.16
62779;BME280;48821;48.796;2.396;2023-02-19T00:09:48;102471.19;;;13.49;60.31
62779;BME280;48821;48.796;2.396;2023-02-19T00:11:06;102465.09;;;13.47;60.48
62779;BME280;48821;48.796;2.396;2023-02-19T00:12:20;102477.41;;;13.47;60.56
62779;BME280;48821;48.796;2.396;2023-02-19T00:13:30;102478.28;;;13.46;60.67
62779;BME280;48821;48.796;2.396;2023-02-19T00:14:47;102480.06;;;13.47;60.30
62779;BME280;48821;48.796;2.396;2023-02-19T00:16:05;102487.97;;;13.47;60.52
62779;BME280;48821;48.796;2.396;2023-02-19T00:17:15;102480.94;;;13.47;60.61
62779;BME280;48821;48.796;2.396;2023-02-19T00:18:26;102487.09;;;13.48;60.63
62779;BME280;48821;48.796;2.396;2023-02-19T00:19:40;102484.41;;;13.49;60.67
62779;BME280;48821;48.796;2.396;2023-02-19T00:20:54;102490.56;;;13.48;60.96
62779;BME280;48821;48.796;2.396;2023-02-19T00:22:08;102483.56;;;13.46;60.90
62779;BME280;48821;48.796;2.396;2023-02-19T00:23:21;102478.34;;;13.44;60.52
62779;BME280;48821;48.796;2.396;2023-02-19T00:24:34;102479.25;;;13.43;61.08
62779;BME280;48821;48.796;2.396;2023-02-19T00:25:45;102481.91;;;13.42;61.07
62779;BME280;48821;48.796;2.396;2023-02-19T00:26:56;102473.13;;;13.39;60.80
62779;BME280;48821;48.796;2.396;2023-02-19T00:28:07;102474.94;;;13.37;61.07
62779;BME280;48821;48.796;2.396;2023-02-19T00:29:20;102468.78;;;13.37;60.83
62779;BME280;48821;48.796;2.396;2023-02-19T00:30:33;102468.78;;;13.37;61.13
62779;BME280;48821;48.796;2.396;2023-02-19T00:31:47;102466.13;;;13.37;61.33
62779;BME280;48821;48.796;2.396;2023-02-19T00:33:00;102465.25;;;13.38;61.29
62779;BME280;48821;48.796;2.396;2023-02-19T00:34:14;102471.38;;;13.38;61.32
62779;BME280;48821;48.796;2.396;2023-02-19T00:35:27;102471.38;;;13.38;61.60
62779;BME280;48821;48.796;2.396;2023-02-19T00:36:39;102473.13;;;13.39;61.32
62779;BME280;48821;48.796;2.396;2023-02-19T00:37:53;102468.72;;;13.40;61.38
62779;BME280;48821;48.796;2.396;2023-02-19T00:39:04;102467.84;;;13.39;61.53
62779;BME280;48821;48.796;2.396;2023-02-19T00:40:15;102466.97;;;13.39;61.30
62779;BME280;48821;48.796;2.396;2023-02-19T00:41:26;102468.72;;;13.40;61.67
62779;BME280;48821;48.796;2.396;2023-02-19T00:42:38;102463.44;;;13.38;61.33
62779;BME280;48821;48.796;2.396;2023-02-19T00:43:51;102469.63;;;13.39;61.82
62779;BME280;48821;48.796;2.396;2023-02-19T00:45:05;102461.72;;;13.37;61.57
62779;BME280;48821;48.796;2.396;2023-02-19T00:46:27;102473.19;;;13.36;61.59
62779;BME280;48821;48.796;2.396;2023-02-19T00:47:38;102468.81;;;13.35;61.60
62779;BME280;48821;48.796;2.396;2023-02-19T00:48:49;102482.91;;;13.34;61.71
62779;BME280;48821;48.796;2.396;2023-02-19T00:50:04;102469.69;;;13.34;61.94
62779;BME280;48821;48.796;2.396;2023-02-19T00:51:19;102466.16;;;13.34;61.58
62779;BME280;48821;48.796;2.396;2023-02-19T00:52:32;102464.44;;;13.33;61.51
62779;BME280;48821;48.796;2.396;2023-02-19T00:53:46;102447.75;;;13.31;61.75
62779;BME280;48821;48.796;2.396;2023-02-19T00:54:59;102447.75;;;13.31;61.65
62779;BME280;48821;48.796;2.396;2023-02-19T00:56:13;102441.56;;;13.32;62.22
62779;BME280;48821;48.796;2.396;2023-02-19T00:57:23;102448.59;;;13.31;62.00
62779;BME280;48821;48.796;2.396;2023-02-19T00:58:34;102454.78;;;13.32;62.14
62779;BME280;48821;48.796;2.396;2023-02-19T00:59:45;102446.84;;;13.33;61.92
62779;BME280;48821;48.796;2.396;2023-02-19T01:00:56;102447.69;;;13.34;61.96
62779;BME280;48821;48.796;2.396;2023-02-19T01:02:08;102441.53;;;13.35;61.87
62779;BME280;48821;48.796;2.396;2023-02-19T01:03:21;102445.88;;;13.36;62.14
62779;BME280;48821;48.796;2.396;2023-02-19T01:04:32;102447.66;;;13.37;62.24
62779;BME280;48821;48.796;2.396;2023-02-19T01:05:43;102447.66;;;13.37;62.00
62779;BME280;48821;48.796;2.396;2023-02-19T01:06:56;102442.34;;;13.37;62.05
62779;BME280;48821;48.796;2.396;2023-02-19T01:08:09;102424.75;;;13.36;62.20
62779;BME280;48821;48.796;2.396;2023-02-19T01:09:22;102426.50;;;13.37;62.23
62779;BME280;48821;48.796;2.396;2023-02-19T01:10:36;102418.59;;;13.37;62.14
62779;BME280;48821;48.796;2.396;2023-02-19T01:11:47;102420.34;;;13.36;62.12
62779;BME280;48821;48.796;2.396;2023-02-19T01:13:00;102425.63;;;13.36;62.02
62779;BME280;48821;48.796;2.396;2023-02-19T01:14:13;102426.47;;;13.38;61.92
62779;BME280;48821;48.796;2.396;2023-02-19T01:15:24;102427.41;;;13.37;62.26
62779;BME280;48821;48.796;2.396;2023-02-19T01:16:35;102431.78;;;13.37;62.01
62779;BME280;48821;48.796;2.396;2023-02-19T01:17:46;102432.69;;;13.36;62.31
62779;BME280;48821;48.796;2.396;2023-02-19T01:18:58;102436.25;;;13.35;62.64
62779;BME280;48821;48.796;2.396;2023-02-19T01:20:08;102436.28;;;13.33;62.29
62779;BME280;48821;48.796;2.396;2023-02-19T01:21:21;102444.22;;;13.32;62.41
62779;BME280;48821;48.796;2.396;2023-02-19T01:22:35;102444.25;;;13.30;62.45
62779;BME280;48821;48.796;2.396;2023-02-19T01:23:49;102443.41;;;13.28;62.89
62779;BME280;48821;48.796;2.396;2023-02-19T01:25:03;102441.69;;;13.25;62.83
62779;BME280;48821;48.796;2.396;2023-02-19T01:26:18;102448.75;;;13.23;62.57
62779;BME280;48821;48.796;2.396;2023-02-19T01:27:32;102444.38;;;13.22;62.97
62779;BME280;48821;48.796;2.396;2023-02-19T01:28:44;102439.09;;;13.22;62.79
62779;BME280;48821;48.796;2.396;2023-02-19T01:29:57;102439.09;;;13.22;63.00
62779;BME280;48821;48.796;2.396;2023-02-19T01:31:12;102434.69;;;13.23;62.68
62779;BME280;48821;48.796;2.396;2023-02-19T01:32:25;102441.72;;;13.22;62.95
62779;BME280;48821;48.796;2.396;2023-02-19T01:33:39;102434.69;;;13.21;62.92
62779;BME280;48821;48.796;2.396;2023-02-19T01:34:49;102440.00;;;13.20;63.39
62779;BME280;48821;48.796;2.396;2023-02-19T01:36:04;102433.84;;;13.19;63.12
62779;BME280;48821;48.796;2.396;2023-02-19T01:37:17;102436.50;;;13.19;62.94
62779;BME280;48821;48.796;2.396;2023-02-19T01:38:27;102448.81;;;13.19;62.85
62779;BME280;48821;48.796;2.396;2023-02-19T01:39:38;102454.09;;;13.19;63.10
62779;BME280;48821;48.796;2.396;2023-02-19T01:40:57;102455.88;;;13.18;63.20
62779;BME280;48821;48.796;2.396;2023-02-19T01:42:13;102454.13;;;13.17;63.14
62779;BME280;48821;48.796;2.396;2023-02-19T01:43:27;102453.25;;;13.18;63.10
62779;BME280;48821;48.796;2.396;2023-02-19T01:45:54;102453.22;;;13.20;63.04
62779;BME280;48821;48.796;2.396;2023-02-19T01:47:06;102447.06;;;13.19;63.03
62779;BME280;48821;48.796;2.396;2023-02-19T01:48:21;102459.38;;;13.20;63.33
62779;BME280;48821;48.796;2.396;2023-02-19T01:49:43;102448.81;;;13.20;63.30
62779;BME280;48821;48.796;2.396;2023-02-19T01:51:04;102461.09;;;13.21;63.23
62779;BME280;48821;48.796;2.396;2023-02-19T01:52:25;102455.81;;;13.21;63.23
62779;BME280;48821;48.796;2.396;2023-02-19T01:53:43;102444.41;;;13.21;63.18
62779;BME280;48821;48.796;2.396;2023-02-19T01:54:59;102447.91;;;13.21;63.24
62779;BME280;48821;48.796;2.396;2023-02-19T01:56:15;102443.53;;;13.20;63.03
62779;BME280;48821;48.796;2.396;2023-02-19T01:57:34;102451.44;;;13.20;63.17
62779;BME280;48821;48.796;2.396;2023-02-19T01:58:46;102447.91;;;13.21;63.41
62779;BME280;48821;48.796;2.396;2023-02-19T02:00:03;102455.81;;;13.21;63.23
62779;BME280;48821;48.796;2.396;2023-02-19T02:01:16;102446.16;;;13.20;63.52
62779;BME280;48821;48.796;2.396;2023-02-19T02:02:27;102448.81;;;13.20;63.31
62779;BME280;48821;48.796;2.396;2023-02-19T02:03:40;102447.03;;;13.21;63.38
62779;BME280;48821;48.796;2.396;2023-02-19T02:04:55;102460.22;;;13.22;63.38
62779;BME280;48821;48.796;2.396;2023-02-19T02:07:29;102461.09;;;13.23;63.15
62779;BME280;48821;48.796;2.396;2023-02-19T02:08:59;102461.09;;;13.21;63.41
62779;BME280;48821;48.796;2.396;2023-02-19T02:10:28;102462.84;;;13.22;63.18
62779;BME280;48821;48.796;2.396;2023-02-19T02:11:48;102460.22;;;13.22;63.15
62779;BME280;48821;48.796;2.396;2023-02-19T02:12:59;102456.69;;;13.23;63.52
62779;BME280;48821;48.796;2.396;2023-02-19T02:14:10;102458.41;;;13.24;63.42
62779;BME280;48821;48.796;2.396;2023-02-19T02:15:25;102452.25;;;13.24;63.42
62779;BME280;48821;48.796;2.396;2023-02-19T02:18:33;102445.22;;;13.26;63.25
62779;BME280;48821;48.796;2.396;2023-02-19T02:20:02;102450.44;;;13.27;63.29
62779;BME280;48821;48.796;2.396;2023-02-19T02:24:57;102448.69;;;13.28;63.60
62779;BME280;48821;48.796;2.396;2023-02-19T02:29:55;102453.03;;;13.31;63.51
62779;BME280;48821;48.796;2.396;2023-02-19T02:31:14;102444.22;;;13.32;63.44
62779;BME280;48821;48.796;2.396;2023-02-19T02:32:39;102444.22;;;13.32;63.59
62779;BME280;48821;48.796;2.396;2023-02-19T02:33:58;102445.97;;;13.33;63.29
62779;BME280;48821;48.796;2.396;2023-02-19T02:35:12;102450.31;;;13.34;62.97
62779;BME280;48821;48.796;2.396;2023-02-19T02:36:41;102453.84;;;13.34;63.37
62779;BME280;48821;48.796;2.396;2023-02-19T02:37:57;102447.69;;;13.34;63.98
62779;BME280;48821;48.796;2.396;2023-02-19T02:39:13;102455.59;;;13.34;63.37
62779;BME280;48821;48.796;2.396;2023-02-19T02:40:24;102448.59;;;13.31;63.41
62779;BME280;48821;48.796;2.396;2023-02-19T02:41:41;102453.88;;;13.31;63.33
62779;BME280;48821;48.796;2.396;2023-02-19T02:42:57;102460.94;;;13.32;63.43
62779;BME280;48821;48.796;2.396;2023-02-19T02:44:08;102457.41;;;13.32;63.38
62779;BME280;48821;48.796;2.396;2023-02-19T02:45:30;102467.09;;;13.33;63.45
62779;BME280;48821;48.796;2.396;2023-02-19T02:46:45;102458.25;;;13.34;63.60
62779;BME280;48821;48.796;2.396;2023-02-19T02:47:56;102455.59;;;13.34;63.58
62779;BME280;48821;48.796;2.396;2023-02-19T02:49:13;102452.13;;;13.33;63.86
62779;BME280;48821;48.796;2.396;2023-02-19T02:50:33;102452.13;;;13.33;63.31
62779;BME280;48821;48.796;2.396;2023-02-19T02:51:50;102449.53;;;13.30;63.53
62779;BME280;48821;48.796;2.396;2023-02-19T02:53:07;102449.53;;;13.28;63.41
62779;BME280;48821;48.796;2.396;2023-02-19T02:54:36;102450.44;;;13.27;63.49
62779;BME280;48821;48.796;2.396;2023-02-19T02:56:08;102451.34;;;13.26;63.56
62779;BME280;48821;48.796;2.396;2023-02-19T02:57:23;102449.59;;;13.25;63.75
62779;BME280;48821;48.796;2.396;2023-02-19T02:58:33;102447.84;;;13.24;63.71
62779;BME280;48821;48.796;2.396;2023-02-19T02:59:45;102449.59;;;13.25;63.72
62779;BME280;48821;48.796;2.396;2023-02-19T03:01:02;102444.31;;;13.25;63.21
62779;BME280;48821;48.796;2.396;2023-02-19T03:02:33;102446.09;;;13.25;63.65
62779;BME280;48821;48.796;2.396;2023-02-19T03:03:49;102442.56;;;13.24;63.50
62779;BME280;48821;48.796;2.396;2023-02-19T03:05:05;102444.34;;;13.24;63.23
62779;BME280;48821;48.796;2.396;2023-02-19T03:06:41;102442.56;;;13.24;63.29
62779;BME280;48821;48.796;2.396;2023-02-19T03:07:57;102449.59;;;13.25;63.49
62779;BME280;48821;48.796;2.396;2023-02-19T03:09:18;102458.41;;;13.24;63.25
62779;BME280;48821;48.796;2.396;2023-02-19T03:10:39;102454.03;;;13.23;63.21
62779;BME280;48821;48.796;2.396;2023-02-19T03:11:54;102450.53;;;13.23;63.14
62779;BME280;48821;48.796;2.396;2023-02-19T03:13:33;102453.19;;;13.21;62.57
62779;BME280;48821;48.796;2.396;2023-02-19T03:15:08;102454.09;;;13.19;62.94
62779;BME280;48821;48.796;2.396;2023-02-19T03:16:43;102462.06;;;13.17;62.58
62779;BME280;48821;48.796;2.396;2023-02-19T03:18:15;102455.06;;;13.14;62.65
62779;BME280;48821;48.796;2.396;2023-02-19T03:19:51;102458.59;;;13.12;62.38
62779;BME280;48821;48.796;2.396;2023-02-19T03:21:07;102456.88;;;13.11;62.60
62779;BME280;48821;48.796;2.396;2023-02-19T03:22:25;102455.13;;;13.10;62.78
62779;BME280;48821;48.796;2.396;2023-02-19T03:23:42;102448.13;;;13.09;62.67
62779;BME280;48821;48.796;2.396;2023-02-19T03:25:18;102450.78;;;13.07;62.99
62779;BME280;48821;48.796;2.396;2023-02-19T03:26:51;102441.97;;;13.08;62.89
62779;BME280;48821;48.796;2.396;2023-02-19T03:28:08;102449.88;;;13.08;62.67
62779;BME280;48821;48.796;2.396;2023-02-19T03:29:25;102448.97;;;13.09;62.35
62779;BME280;48821;48.796;2.396;2023-02-19T03:30:51;102448.97;;;13.11;62.81
62779;BME280;48821;48.796;2.396;2023-02-19T03:32:26;102444.53;;;13.13;62.72
62779;BME280;48821;48.796;2.396;2023-02-19T03:33:42;102450.69;;;13.13;62.81
62779;BME280;48821;48.796;2.396;2023-02-19T03:35:16;102444.53;;;13.13;62.83
62779;BME280;48821;48.796;2.396;2023-02-19T03:36:37;102448.06;;;13.12;62.64
62779;BME280;48821;48.796;2.396;2023-02-19T03:39:12;102440.22;;;13.07;62.78
62779;BME280;48821;48.796;2.396;2023-02-19T03:40:29;102440.25;;;13.04;62.47
62779;BME280;48821;48.796;2.396;2023-02-19T03:42:11;102444.69;;;13.03;62.64
62779;BME280;48821;48.796;2.396;2023-02-19T03:43:49;102432.38;;;13.02;62.73
62779;BME280;48821;48.796;2.396;2023-02-19T03:45:17;102437.66;;;13.02;62.55
62779;BME280;48821;48.796;2.396;2023-02-19T03:51:13;102441.16;;;13.01;62.51
62779;BME280;48821;48.796;2.396;2023-02-19T03:54:42;102446.53;;;12.97;62.53
62779;BME280;48821;48.796;2.396;2023-02-19T03:59:18;102445.59;;;12.99;62.41
62779;BME280;48821;48.796;2.396;2023-02-19T04:02:18;102444.75;;;12.99;62.35
62779;BME280;48821;48.796;2.396;2023-02-19T04:03:51;102453.53;;;12.99;62.05
62779;BME280;48821;48.796;2.396;2023-02-19T04:05:12;102445.69;;;12.96;62.09
62779;BME280;48821;48.796;2.396;2023-02-19T04:06:28;102448.31;;;12.96;62.33
62779;BME280;48821;48.796;2.396;2023-02-19T04:07:45;102443.03;;;12.96;62.24
62779;BME280;48821;48.796;2.396;2023-02-19T04:09:02;102447.41;;;12.97;62.10
62779;BME280;48821;48.796;2.396;2023-02-19T04:10:19;102454.44;;;12.98;62.15
62779;BME280;48821;48.796;2.396;2023-02-19T04:11:34;102453.53;;;12.99;62.09
62779;BME280;48821;48.796;2.396;2023-02-19T04:12:53;102456.16;;;12.99;61.82
62779;BME280;48821;48.796;2.396;2023-02-19T04:14:13;102456.16;;;12.99;61.77
62779;BME280;48821;48.796;2.396;2023-02-19T04:15:31;102457.03;;;13.00;62.16
62779;BME280;48821;48.796;2.396;2023-02-19T04:16:50;102458.81;;;12.99;61.92
62779;BME280;48821;48.796;2.396;2023-02-19T04:18:13;102454.41;;;13.00;62.12
62779;BME280;48821;48.796;2.396;2023-02-19T04:19:30;102461.44;;;13.01;62.03
62779;BME280;48821;48.796;2.396;2023-02-19T04:20:46;102458.75;;;13.02;61.75
62779;BME280;48821;48.796;2.396;2023-02-19T04:22:00;102468.44;;;13.03;61.78
62779;BME280;48821;48.796;2.396;2023-02-19T04:23:18;102461.38;;;13.04;61.99
62779;BME280;48821;48.796;2.396;2023-02-19T04:24:46;102458.72;;;13.05;61.89
62779;BME280;48821;48.796;2.396;2023-02-19T04:26:01;102465.75;;;13.05;61.82
62779;BME280;48821;48.796;2.396;2023-02-19T04:27:16;102466.66;;;13.05;61.74
62779;BME280;48821;48.796;2.396;2023-02-19T04:28:30;102462.25;;;13.04;61.66
62779;BME280;48821;48.796;2.396;2023-02-19T04:29:43;102463.13;;;13.05;61.56
62779;BME280;48821;48.796;2.396;2023-02-19T04:30:56;102462.25;;;13.04;61.55
62779;BME280;48821;48.796;2.396;2023-02-19T04:32:11;102464.88;;;13.06;61.63
62779;BME280;48821;48.796;2.396;2023-02-19T04:33:24;102471.00;;;13.08;62.02
62779;BME280;48821;48.796;2.396;2023-02-19T04:34:38;102469.25;;;13.09;61.53
62779;BME280;48821;48.796;2.396;2023-02-19T04:35:51;102472.72;;;13.11;61.55
62779;BME280;48821;48.796;2.396;2023-02-19T04:37:05;102478.84;;;13.11;61.56
62779;BME280;48821;48.796;2.396;2023-02-19T04:38:18;102480.66;;;13.09;61.48
62779;BME280;48821;48.796;2.396;2023-02-19T04:39:31;102481.56;;;13.08;61.51
62779;BME280;48821;48.796;2.396;2023-02-19T04:40:44;102486.84;;;13.07;61.36
62779;BME280;48821;48.796;2.396;2023-02-19T04:41:58;102486.84;;;13.07;61.51
62779;BME280;48821;48.796;2.396;2023-02-19T04:43:11;102493.03;;;13.05;60.94
62779;BME280;48821;48.796;2.396;2023-02-19T04:44:25;102487.78;;;13.02;61.47
62779;BME280;48821;48.796;2.396;2023-02-19T04:45:38;102491.31;;;13.01;61.47
62779;BME280;48821;48.796;2.396;2023-02-19T04:46:51;102488.72;;;13.00;61.14
62779;BME280;48821;48.796;2.396;2023-02-19T04:48:05;102490.47;;;12.99;61.24
62779;BME280;48821;48.796;2.396;2023-02-19T04:49:18;102490.50;;;12.98;61.20
62779;BME280;48821;48.796;2.396;2023-02-19T04:50:31;102491.44;;;12.95;60.83
62779;BME280;48821;48.796;2.396;2023-02-19T04:51:44;102492.31;;;12.96;60.61
62779;BME280;48821;48.796;2.396;2023-02-19T04:52:57;102490.53;;;12.96;61.01
62779;BME280;48821;48.796;2.396;2023-02-19T04:54:11;102497.59;;;12.96;60.38
62779;BME280;48821;48.796;2.396;2023-02-19T04:55:24;102494.94;;;12.94;60.50
62779;BME280;48821;48.796;2.396;2023-02-19T04:56:38;102494.06;;;12.95;60.76
62779;BME280;48821;48.796;2.396;2023-02-19T04:57:51;102491.47;;;12.93;60.54
62779;BME280;48821;48.796;2.396;2023-02-19T04:59:05;102489.69;;;12.92;60.35
62779;BME280;48821;48.796;2.396;2023-02-19T05:00:18;102492.34;;;12.92;60.74
62779;BME280;48821;48.796;2.396;2023-02-19T05:01:31;102494.09;;;12.93;60.40
62779;BME280;48821;48.796;2.396;2023-02-19T05:02:44;102505.50;;;12.94;59.80
62779;BME280;48821;48.796;2.396;2023-02-19T05:03:57;102506.38;;;12.94;60.21
62779;BME280;48821;48.796;2.396;2023-02-19T05:05:11;102511.66;;;12.96;60.17
62779;BME280;48821;48.796;2.396;2023-02-19T05:06:24;102503.75;;;12.96;59.90
62779;BME280;48821;48.796;2.396;2023-02-19T05:07:37;102511.66;;;12.96;59.92
62779;BME280;48821;48.796;2.396;2023-02-19T05:08:50;102514.31;;;12.94;60.08
62779;BME280;48821;48.796;2.396;2023-02-19T05:10:04;102516.06;;;12.96;60.15
62779;BME280;48821;48.796;2.396;2023-02-19T05:11:17;102516.03;;;12.97;60.31
62779;BME280;48821;48.796;2.396;2023-02-19T05:12:30;102516.91;;;12.98;60.07
62779;BME280;48821;48.796;2.396;2023-02-19T05:13:43;102517.75;;;13.00;60.17
62779;BME280;48821;48.796;2.396;2023-02-19T05:14:57;102516.03;;;12.99;60.26
62779;BME280;48821;48.796;2.396;2023-02-19T05:16:12;102518.63;;;13.00;60.04
62779;BME280;48821;48.796;2.396;2023-02-19T05:17:25;102512.47;;;13.00;60.06
62779;BME280;48821;48.796;2.396;2023-02-19T05:18:39;102519.50;;;13.01;60.21
62779;BME280;48821;48.796;2.396;2023-02-19T05:19:53;102520.34;;;13.01;59.99
62779;BME280;48821;48.796;2.396;2023-02-19T05:21:06;102527.44;;;12.99;59.79
62779;BME280;48821;48.796;2.396;2023-02-19T05:22:19;102528.31;;;13.00;59.91
62779;BME280;48821;48.796;2.396;2023-02-19T05:23:32;102530.13;;;12.96;60.02
62779;BME280;48821;48.796;2.396;2023-02-19T05:24:46;102521.34;;;12.96;59.58
62779;BME280;48821;48.796;2.396;2023-02-19T05:26:04;102531.00;;;12.95;60.15
62779;BME280;48821;48.796;2.396;2023-02-19T05:27:17;102528.38;;;12.95;59.93
62779;BME280;48821;48.796;2.396;2023-02-19T05:28:30;102526.63;;;12.94;60.20
62779;BME280;48821;48.796;2.396;2023-02-19T05:29:44;102525.75;;;12.95;60.23
62779;BME280;48821;48.796;2.396;2023-02-19T05:30:57;102516.06;;;12.96;60.22
62779;BME280;48821;48.796;2.396;2023-02-19T05:32:10;102520.47;;;12.95;60.13
62779;BME280;48821;48.796;2.396;2023-02-19T05:33:24;102530.13;;;12.96;59.97
62779;BME280;48821;48.796;2.396;2023-02-19T05:34:38;102532.78;;;12.96;60.05
62779;BME280;48821;48.796;2.396;2023-02-19T05:35:53;102533.69;;;12.93;60.29
62779;BME280;48821;48.796;2.396;2023-02-19T05:37:07;102533.69;;;12.93;60.33
62779;BME280;48821;48.796;2.396;2023-02-19T05:38:21;102532.81;;;12.93;60.17
62779;BME280;48821;48.796;2.396;2023-02-19T05:39:34;102536.28;;;12.95;60.33
62779;BME280;48821;48.796;2.396;2023-02-19T05:40:47;102541.56;;;12.95;60.28
62779;BME280;48821;48.796;2.396;2023-02-19T05:42:01;102538.06;;;12.96;60.40
62779;BME280;48821;48.796;2.396;2023-02-19T05:43:14;102541.56;;;12.95;60.62
62779;BME280;48821;48.796;2.396;2023-02-19T05:44:27;102543.34;;;12.94;60.56
62779;BME280;48821;48.796;2.396;2023-02-19T05:45:41;102550.38;;;12.96;60.50
62779;BME280;48821;48.796;2.396;2023-02-19T05:46:54;102542.44;;;12.96;60.75
62779;BME280;48821;48.796;2.396;2023-02-19T05:48:07;102554.75;;;12.97;60.57
62779;BME280;48821;48.796;2.396;2023-02-19T05:49:20;102552.97;;;12.97;60.49
62779;BME280;48821;48.796;2.396;2023-02-19T05:50:35;102559.09;;;12.99;60.47
62779;BME280;48821;48.796;2.396;2023-02-19T05:51:51;102550.34;;;12.99;60.15
62779;BME280;48821;48.796;2.396;2023-02-19T05:53:04;102551.22;;;12.98;60.39
62779;BME280;48821;48.796;2.396;2023-02-19T05:54:18;102559.13;;;12.98;60.35
62779;BME280;48821;48.796;2.396;2023-02-19T05:55:34;102558.25;;;12.99;60.52
62779;BME280;48821;48.796;2.396;2023-02-19T05:56:48;102550.34;;;12.97;60.40
62779;BME280;48821;48.796;2.396;2023-02-19T05:58:01;102558.25;;;12.99;60.39
62779;BME280;48821;48.796;2.396;2023-02-19T05:59:18;102557.34;;;13.00;60.28
62779;BME280;48821;48.796;2.396;2023-02-19T06:00:32;102557.31;;;13.01;60.34
62779;BME280;48821;48.796;2.396;2023-02-19T06:01:46;102557.31;;;13.01;60.13
62779;BME280;48821;48.796;2.396;2023-02-19T06:03:00;102551.16;;;13.02;60.25
62779;BME280;48821;48.796;2.396;2023-02-19T06:04:14;102558.19;;;13.02;60.34
62779;BME280;48821;48.796;2.396;2023-02-19T06:05:27;102559.91;;;13.04;59.96
62779;BME280;48821;48.796;2.396;2023-02-19T06:06:42;102553.75;;;13.05;59.98
62779;BME280;48821;48.796;2.396;2023-02-19T06:07:55;102552.88;;;13.05;60.23
62779;BME280;48821;48.796;2.396;2023-02-19T06:09:09;102553.75;;;13.05;59.85
62779;BME280;48821;48.796;2.396;2023-02-19T06:10:22;102552.84;;;13.07;60.11
62779;BME280;48821;48.796;2.396;2023-02-19T06:11:36;102549.34;;;13.06;59.72
62779;BME280;48821;48.796;2.396;2023-02-19T06:12:52;102546.69;;;13.08;59.73
62779;BME280;48821;48.796;2.396;2023-02-19T06:14:05;102544.91;;;13.07;60.07
62779;BME280;48821;48.796;2.396;2023-02-19T06:15:19;102548.47;;;13.05;59.74
62779;BME280;48821;48.796;2.396;2023-02-19T06:16:32;102559.03;;;13.05;59.95
62779;BME280;48821;48.796;2.396;2023-02-19T06:17:47;102557.28;;;13.06;59.48
62779;BME280;48821;48.796;2.396;2023-02-19T06:19:02;102559.03;;;13.05;59.68
62779;BME280;48821;48.796;2.396;2023-02-19T06:20:15;102559.03;;;13.04;59.33
62779;BME280;48821;48.796;2.396;2023-02-19T06:21:29;102560.81;;;13.03;59.48
62779;BME280;48821;48.796;2.396;2023-02-19T06:22:42;102559.06;;;13.02;59.55
62779;BME280;48821;48.796;2.396;2023-02-19T06:23:55;102551.16;;;13.02;59.21
62779;BME280;48821;48.796;2.396;2023-02-19T06:25:09;102553.78;;;13.02;59.35
62779;BME280;48821;48.796;2.396;2023-02-19T06:26:24;102555.53;;;13.02;59.24
62779;BME280;48821;48.796;2.396;2023-02-19T06:27:38;102557.31;;;13.03;59.13
62779;BME280;48821;48.796;2.396;2023-02-19T06:28:52;102564.31;;;13.04;58.58
62779;BME280;48821;48.796;2.396;2023-02-19T06:30:06;102563.47;;;13.02;58.75
62779;BME280;48821;48.796;2.396;2023-02-19T06:31:21;102567.00;;;13.02;59.13
62779;BME280;48821;48.796;2.396;2023-02-19T06:32:35;102567.03;;;13.01;58.54
62779;BME280;48821;48.796;2.396;2023-02-19T06:33:48;102567.03;;;13.01;59.11
62779;BME280;48821;48.796;2.396;2023-02-19T06:35:02;102564.38;;;12.99;58.76
62779;BME280;48821;48.796;2.396;2023-02-19T06:36:21;102570.53;;;13.00;59.05
62779;BME280;48821;48.796;2.396;2023-02-19T06:37:34;102566.13;;;13.00;59.12
62779;BME280;48821;48.796;2.396;2023-02-19T06:38:48;102566.13;;;13.00;59.26
62779;BME280;48821;48.796;2.396;2023-02-19T06:40:01;102570.50;;;13.01;58.91
62779;BME280;48821;48.796;2.396;2023-02-19T06:41:15;102569.66;;;12.99;58.64
62779;BME280;48821;48.796;2.396;2023-02-19T06:42:30;102570.53;;;13.00;59.01
62779;BME280;48821;48.796;2.396;2023-02-19T06:43:44;102562.63;;;13.00;59.08
62779;BME280;48821;48.796;2.396;2023-02-19T06:44:58;102570.50;;;13.01;58.91
62779;BME280;48821;48.796;2.396;2023-02-19T06:46:12;102564.34;;;13.02;58.87
62779;BME280;48821;48.796;2.396;2023-02-19T06:47:25;102565.22;;;13.03;58.76
62779;BME280;48821;48.796;2.396;2023-02-19T06:48:39;102568.72;;;13.05;58.74
62779;BME280;48821;48.796;2.396;2023-02-19T06:49:50;102571.34;;;13.05;58.84
62779;BME280;48821;48.796;2.396;2023-02-19T06:51:02;102573.13;;;13.06;58.32
62779;BME280;48821;48.796;2.396;2023-02-19T06:52:15;102572.19;;;13.07;58.43
62779;BME280;48821;48.796;2.396;2023-02-19T06:53:28;102571.31;;;13.07;58.41
62779;BME280;48821;48.796;2.396;2023-02-19T06:54:39;102576.59;;;13.07;58.21
62779;BME280;48821;48.796;2.396;2023-02-19T06:56:02;102580.13;;;13.07;58.57
62779;BME280;48821;48.796;2.396;2023-02-19T06:57:16;102590.69;;;13.07;58.36
62779;BME280;48821;48.796;2.396;2023-02-19T06:58:28;102583.63;;;13.08;58.19
62779;BME280;48821;48.796;2.396;2023-02-19T06:59:40;102580.13;;;13.07;58.28